sensor_id;sensor_type;location;lat;lon;timestamp;temperature;humidity
23544;DHT22;11950;51.230;4.012;2023-08-08T00:02:20;15.80;99.90
23544;DHT22;11950;51.230;4.012;2023-08-08T00:04:48;15.80;99.90
23544;DHT22;11950;51.230;4.012;2023-08-08T00:07:14;15.80;99.90
23544;DHT22;11950;51.230;4.012;2023-08-08T00:09:40;15.80;99.90
23544;DHT22;11950;51.230;4.012;2023-08-08T00:12:06;15.80;99.90
23544;DHT22;11950;51.230;4.012;2023-08-08T00:14:33;15.80;99.90
23544;DHT22;11950;51.230;4.012;2023-08-08T00:16:59;15.80;99.90
23544;DHT22;11950;51.230;4.012;2023-08-08T00:19:25;15.80;99.90
23544;DHT22;11950;51.230;4.012;2023-08-08T00:21:51;15.70;99.90
23544;DHT22;11950;51.230;4.012;2023-08-08T00:24:18;15.80;99.90
23544;DHT22;11950;51.230;4.012;2023-08-08T00:26:44;15.70;99.90
23544;DHT22;11950;51.230;4.012;2023-08-08T00:29:10;15.80;99.90
23544;DHT22;11950;51.230;4.012;2023-08-08T00:31:36;15.70;99.90
23544;DHT22;11950;51.230;4.012;2023-08-08T00:34:02;15.70;99.90
23544;DHT22;11950;51.230;4.012;2023-08-08T00:36:29;15.70;99.90
23544;DHT22;11950;51.230;4.012;2023-08-08T00:38:55;15.70;99.90
23544;DHT22;11950;51.230;4.012;2023-08-08T00:41:21;15.70;99.90
23544;DHT22;11950;51.230;4.012;2023-08-08T00:43:48;15.70;99.90
23544;DHT22;11950;51.230;4.012;2023-08-08T00:46:18;15.70;99.90
23544;DHT22;11950;51.230;4.012;2023-08-08T00:48:46;15.70;99.90
23544;DHT22;11950;51.230;4.012;2023-08-08T00:51:13;15.70;99.90
23544;DHT22;11950;51.230;4.012;2023-08-08T00:53:39;15.80;99.90
23544;DHT22;11950;51.230;4.012;2023-08-08T00:56:06;15.80;99.90
23544;DHT22;11950;51.230;4.012;2023-08-08T00:58:32;15.80;99.90
23544;DHT22;11950;51.230;4.012;2023-08-08T01:00:58;15.90;99.90
23544;DHT22;11950;51.230;4.012;2023-08-08T01:03:26;15.90;99.90
23544;DHT22;11950;51.230;4.012;2023-08-08T01:06:05;15.90;99.90
23544;DHT22;11950;51.230;4.012;2023-08-08T01:08:42;15.90;99.90
23544;DHT22;11950;51.230;4.012;2023-08-08T01:11:11;15.90;99.90
23544;DHT22;11950;51.230;4.012;2023-08-08T01:13:41;15.90;99.90
23544;DHT22;11950;51.230;4.012;2023-08-08T01:16:09;15.90;99.90
23544;DHT22;11950;51.230;4.012;2023-08-08T01:18:37;15.90;99.90
23544;DHT22;11950;51.230;4.012;2023-08-08T01:21:04;15.90;99.90
23544;DHT22;11950;51.230;4.012;2023-08-08T01:23:53;15.90;99.90
23544;DHT22;11950;51.230;4.012;2023-08-08T01:26:21;15.90;99.90
23544;DHT22;11950;51.230;4.012;2023-08-08T01:28:47;15.90;99.90
23544;DHT22;11950;51.230;4.012;2023-08-08T01:31:14;15.90;99.90
23544;DHT22;11950;51.230;4.012;2023-08-08T01:33:41;15.90;99.90
23544;DHT22;11950;51.230;4.012;2023-08-08T01:36:15;15.90;99.90
23544;DHT22;11950;51.230;4.012;2023-08-08T01:38:46;15.90;99.90
23544;DHT22;11950;51.230;4.012;2023-08-08T01:41:15;15.80;99.90
23544;DHT22;11950;51.230;4.012;2023-08-08T01:43:42;15.80;99.90
23544;DHT22;11950;51.230;4.012;2023-08-08T01:46:09;15.80;99.90
23544;DHT22;11950;51.230;4.012;2023-08-08T01:48:36;15.80;99.90
23544;DHT22;11950;51.230;4.012;2023-08-08T01:51:02;15.80;99.90
23544;DHT22;11950;51.230;4.012;2023-08-08T01:53:29;15.80;99.90
23544;DHT22;11950;51.230;4.012;2023-08-08T01:55:55;15.80;99.90
23544;DHT22;11950;51.230;4.012;2023-08-08T01:58:21;15.80;99.90
23544;DHT22;11950;51.230;4.012;2023-08-08T02:00:48;15.80;99.90
23544;DHT22;11950;51.230;4.012;2023-08-08T02:03:14;15.80;99.90
23544;DHT22;11950;51.230;4.012;2023-08-08T02:05:41;15.70;99.90
23544;DHT22;11950;51.230;4.012;2023-08-08T02:08:07;15.70;99.90
23544;DHT22;11950;51.230;4.012;2023-08-08T02:10:35;15.70;99.90
23544;DHT22;11950;51.230;4.012;2023-08-08T02:13:01;15.70;99.90
23544;DHT22;11950;51.230;4.012;2023-08-08T02:15:27;15.70;99.90
23544;DHT22;11950;51.230;4.012;2023-08-08T02:17:53;15.70;99.90
23544;DHT22;11950;51.230;4.012;2023-08-08T02:20:20;15.70;99.90
23544;DHT22;11950;51.230;4.012;2023-08-08T02:22:46;15.70;99.90
23544;DHT22;11950;51.230;4.012;2023-08-08T02:25:12;15.60;99.90
23544;DHT22;11950;51.230;4.012;2023-08-08T02:27:38;15.60;99.90
23544;DHT22;11950;51.230;4.012;2023-08-08T02:30:08;15.60;99.90
23544;DHT22;11950;51.230;4.012;2023-08-08T02:32:35;15.60;99.90
23544;DHT22;11950;51.230;4.012;2023-08-08T02:35:01;15.50;99.90
23544;DHT22;11950;51.230;4.012;2023-08-08T02:37:28;15.50;99.90
23544;DHT22;11950;51.230;4.012;2023-08-08T02:39:54;15.50;99.90
23544;DHT22;11950;51.230;4.012;2023-08-08T02:42:20;15.40;99.90
23544;DHT22;11950;51.230;4.012;2023-08-08T02:44:46;15.40;99.90
23544;DHT22;11950;51.230;4.012;2023-08-08T02:47:13;15.40;99.90
23544;DHT22;11950;51.230;4.012;2023-08-08T02:49:39;15.40;99.90
23544;DHT22;11950;51.230;4.012;2023-08-08T02:52:06;15.30;99.90
23544;DHT22;11950;51.230;4.012;2023-08-08T02:54:34;15.30;99.90
23544;DHT22;11950;51.230;4.012;2023-08-08T02:57:00;15.30;99.90
23544;DHT22;11950;51.230;4.012;2023-08-08T02:59:28;15.30;99.90
23544;DHT22;11950;51.230;4.012;2023-08-08T03:01:55;15.30;99.90
23544;DHT22;11950;51.230;4.012;2023-08-08T03:04:21;15.30;99.90
23544;DHT22;11950;51.230;4.012;2023-08-08T03:06:48;15.30;99.90
23544;DHT22;11950;51.230;4.012;2023-08-08T03:09:14;15.30;99.90
23544;DHT22;11950;51.230;4.012;2023-08-08T03:11:42;15.30;99.90
23544;DHT22;11950;51.230;4.012;2023-08-08T03:14:10;15.30;99.90
23544;DHT22;11950;51.230;4.012;2023-08-08T03:16:37;15.20;99.90
23544;DHT22;11950;51.230;4.012;2023-08-08T03:19:04;15.20;99.90
23544;DHT22;11950;51.230;4.012;2023-08-08T03:21:30;15.20;99.90
23544;DHT22;11950;51.230;4.012;2023-08-08T03:23:57;15.20;99.90
23544;DHT22;11950;51.230;4.012;2023-08-08T03:26:23;15.10;99.90
23544;DHT22;11950;51.230;4.012;2023-08-08T03:28:50;15.10;99.90
23544;DHT22;11950;51.230;4.012;2023-08-08T03:31:21;15.10;99.90
23544;DHT22;11950;51.230;4.012;2023-08-08T03:33:48;15.10;99.90
23544;DHT22;11950;51.230;4.012;2023-08-08T03:36:15;15.00;99.90
23544;DHT22;11950;51.230;4.012;2023-08-08T03:38:41;15.00;99.90
23544;DHT22;11950;51.230;4.012;2023-08-08T03:41:12;15.00;99.90
23544;DHT22;11950;51.230;4.012;2023-08-08T03:43:39;15.00;99.90
23544;DHT22;11950;51.230;4.012;2023-08-08T03:46:06;15.00;99.90
23544;DHT22;11950;51.230;4.012;2023-08-08T03:48:32;14.90;99.90
23544;DHT22;11950;51.230;4.012;2023-08-08T03:50:58;14.90;99.90
23544;DHT22;11950;51.230;4.012;2023-08-08T03:53:25;14.90;99.90
23544;DHT22;11950;51.230;4.012;2023-08-08T03:55:51;14.90;99.90
23544;DHT22;11950;51.230;4.012;2023-08-08T03:58:17;14.90;99.90
23544;DHT22;11950;51.230;4.012;2023-08-08T04:00:44;14.90;99.90
23544;DHT22;11950;51.230;4.012;2023-08-08T04:03:16;14.90;99.90
23544;DHT22;11950;51.230;4.012;2023-08-08T04:05:46;14.90;99.90
23544;DHT22;11950;51.230;4.012;2023-08-08T04:08:16;14.90;99.90
23544;DHT22;11950;51.230;4.012;2023-08-08T04:10:43;14.90;99.90
23544;DHT22;11950;51.230;4.012;2023-08-08T04:13:10;14.90;99.90
23544;DHT22;11950;51.230;4.012;2023-08-08T04:15:37;14.80;99.90
23544;DHT22;11950;51.230;4.012;2023-08-08T04:18:03;14.80;99.90
23544;DHT22;11950;51.230;4.012;2023-08-08T04:20:35;14.90;99.90
23544;DHT22;11950;51.230;4.012;2023-08-08T04:23:01;14.80;99.90
23544;DHT22;11950;51.230;4.012;2023-08-08T04:25:28;14.80;99.90
23544;DHT22;11950;51.230;4.012;2023-08-08T04:27:54;14.80;99.90
23544;DHT22;11950;51.230;4.012;2023-08-08T04:30:20;14.80;99.90
23544;DHT22;11950;51.230;4.012;2023-08-08T04:32:47;14.80;99.90
23544;DHT22;11950;51.230;4.012;2023-08-08T04:35:13;14.80;99.90
23544;DHT22;11950;51.230;4.012;2023-08-08T04:37:39;14.80;99.90
23544;DHT22;11950;51.230;4.012;2023-08-08T04:40:06;14.80;99.90
23544;DHT22;11950;51.230;4.012;2023-08-08T04:42:34;14.80;99.90
23544;DHT22;11950;51.230;4.012;2023-08-08T04:45:00;14.70;99.90
23544;DHT22;11950;51.230;4.012;2023-08-08T04:47:26;14.70;99.90
23544;DHT22;11950;51.230;4.012;2023-08-08T04:49:53;14.70;99.90
23544;DHT22;11950;51.230;4.012;2023-08-08T04:52:19;14.70;99.90
23544;DHT22;11950;51.230;4.012;2023-08-08T04:54:45;14.70;99.90
23544;DHT22;11950;51.230;4.012;2023-08-08T04:57:11;14.70;99.90
23544;DHT22;11950;51.230;4.012;2023-08-08T04:59:38;14.70;99.90
23544;DHT22;11950;51.230;4.012;2023-08-08T05:02:04;14.70;99.90
23544;DHT22;11950;51.230;4.012;2023-08-08T05:04:30;14.70;99.90
23544;DHT22;11950;51.230;4.012;2023-08-08T05:06:57;14.70;99.90
23544;DHT22;11950;51.230;4.012;2023-08-08T05:09:27;14.70;99.90
23544;DHT22;11950;51.230;4.012;2023-08-08T05:11:53;14.70;99.90
23544;DHT22;11950;51.230;4.012;2023-08-08T05:14:20;14.70;99.90
23544;DHT22;11950;51.230;4.012;2023-08-08T05:16:46;14.90;99.90
23544;DHT22;11950;51.230;4.012;2023-08-08T05:19:12;14.90;99.90
23544;DHT22;11950;51.230;4.012;2023-08-08T05:21:38;15.00;99.90
23544;DHT22;11950;51.230;4.012;2023-08-08T05:24:05;15.00;99.90
23544;DHT22;11950;51.230;4.012;2023-08-08T05:26:31;15.10;99.90
23544;DHT22;11950;51.230;4.012;2023-08-08T05:28:57;15.10;99.90
23544;DHT22;11950;51.230;4.012;2023-08-08T05:31:23;15.20;99.90
23544;DHT22;11950;51.230;4.012;2023-08-08T05:33:49;15.20;99.90
23544;DHT22;11950;51.230;4.012;2023-08-08T05:36:16;15.20;99.90
23544;DHT22;11950;51.230;4.012;2023-08-08T05:38:42;15.30;99.90
23544;DHT22;11950;51.230;4.012;2023-08-08T05:41:08;15.30;99.90
23544;DHT22;11950;51.230;4.012;2023-08-08T05:43:34;15.30;99.90
23544;DHT22;11950;51.230;4.012;2023-08-08T05:46:01;15.40;99.90
23544;DHT22;11950;51.230;4.012;2023-08-08T05:48:27;15.40;99.90
23544;DHT22;11950;51.230;4.012;2023-08-08T05:50:54;15.50;99.90
23544;DHT22;11950;51.230;4.012;2023-08-08T05:53:20;15.50;99.90
23544;DHT22;11950;51.230;4.012;2023-08-08T05:55:46;15.60;99.90
23544;DHT22;11950;51.230;4.012;2023-08-08T05:58:12;15.60;99.90
23544;DHT22;11950;51.230;4.012;2023-08-08T06:00:40;15.70;99.90
23544;DHT22;11950;51.230;4.012;2023-08-08T06:03:06;15.70;99.90
23544;DHT22;11950;51.230;4.012;2023-08-08T06:05:32;15.80;99.90
23544;DHT22;11950;51.230;4.012;2023-08-08T06:07:59;15.80;99.90
23544;DHT22;11950;51.230;4.012;2023-08-08T06:10:25;15.90;99.90
23544;DHT22;11950;51.230;4.012;2023-08-08T06:12:51;15.90;99.90
23544;DHT22;11950;51.230;4.012;2023-08-08T06:15:18;16.00;99.90
23544;DHT22;11950;51.230;4.012;2023-08-08T06:17:44;16.00;99.90
23544;DHT22;11950;51.230;4.012;2023-08-08T06:20:11;16.10;99.90
23544;DHT22;11950;51.230;4.012;2023-08-08T06:22:37;16.10;99.90
23544;DHT22;11950;51.230;4.012;2023-08-08T06:25:03;16.20;99.90
23544;DHT22;11950;51.230;4.012;2023-08-08T06:27:30;16.30;99.90
23544;DHT22;11950;51.230;4.012;2023-08-08T06:29:56;16.40;99.90
23544;DHT22;11950;51.230;4.012;2023-08-08T06:32:22;16.50;99.90
23544;DHT22;11950;51.230;4.012;2023-08-08T06:34:48;16.50;99.90
23544;DHT22;11950;51.230;4.012;2023-08-08T06:37:15;16.60;99.90
23544;DHT22;11950;51.230;4.012;2023-08-08T06:39:41;16.60;99.90
23544;DHT22;11950;51.230;4.012;2023-08-08T06:42:08;16.70;99.90
23544;DHT22;11950;51.230;4.012;2023-08-08T06:44:46;16.70;99.90
23544;DHT22;11950;51.230;4.012;2023-08-08T06:47:13;16.70;99.90
23544;DHT22;11950;51.230;4.012;2023-08-08T06:49:39;16.70;99.90
23544;DHT22;11950;51.230;4.012;2023-08-08T06:52:06;16.80;99.90
23544;DHT22;11950;51.230;4.012;2023-08-08T06:54:33;16.80;99.90
23544;DHT22;11950;51.230;4.012;2023-08-08T06:56:59;16.80;99.90
23544;DHT22;11950;51.230;4.012;2023-08-08T06:59:27;16.80;99.90
23544;DHT22;11950;51.230;4.012;2023-08-08T07:01:53;16.80;99.90
23544;DHT22;11950;51.230;4.012;2023-08-08T07:04:20;16.80;99.90
23544;DHT22;11950;51.230;4.012;2023-08-08T07:06:48;16.80;99.90
23544;DHT22;11950;51.230;4.012;2023-08-08T07:09:14;16.80;99.90
23544;DHT22;11950;51.230;4.012;2023-08-08T07:11:41;16.80;99.90
23544;DHT22;11950;51.230;4.012;2023-08-08T07:14:07;16.80;99.90
23544;DHT22;11950;51.230;4.012;2023-08-08T07:16:33;16.90;99.90
23544;DHT22;11950;51.230;4.012;2023-08-08T07:19:00;16.90;99.90
23544;DHT22;11950;51.230;4.012;2023-08-08T07:21:26;16.90;99.90
23544;DHT22;11950;51.230;4.012;2023-08-08T07:23:53;16.90;99.90
23544;DHT22;11950;51.230;4.012;2023-08-08T07:26:20;17.00;99.90
23544;DHT22;11950;51.230;4.012;2023-08-08T07:28:48;17.00;99.90
23544;DHT22;11950;51.230;4.012;2023-08-08T07:31:14;17.00;99.90
23544;DHT22;11950;51.230;4.012;2023-08-08T07:33:40;17.00;99.90
23544;DHT22;11950;51.230;4.012;2023-08-08T07:36:06;17.00;99.90
23544;DHT22;11950;51.230;4.012;2023-08-08T07:38:33;17.10;99.90
23544;DHT22;11950;51.230;4.012;2023-08-08T07:40:59;17.10;99.90
23544;DHT22;11950;51.230;4.012;2023-08-08T07:43:25;17.10;99.90
23544;DHT22;11950;51.230;4.012;2023-08-08T07:45:52;17.20;99.90
23544;DHT22;11950;51.230;4.012;2023-08-08T07:48:18;17.20;99.90
23544;DHT22;11950;51.230;4.012;2023-08-08T07:50:45;17.20;99.90
23544;DHT22;11950;51.230;4.012;2023-08-08T07:53:11;17.20;99.90
23544;DHT22;11950;51.230;4.012;2023-08-08T07:55:37;17.20;99.90
23544;DHT22;11950;51.230;4.012;2023-08-08T07:58:04;17.20;99.90
23544;DHT22;11950;51.230;4.012;2023-08-08T08:00:30;17.20;99.90
23544;DHT22;11950;51.230;4.012;2023-08-08T08:02:56;17.30;99.90
23544;DHT22;11950;51.230;4.012;2023-08-08T08:05:22;17.20;99.90
23544;DHT22;11950;51.230;4.012;2023-08-08T08:07:49;17.20;99.90
23544;DHT22;11950;51.230;4.012;2023-08-08T08:10:15;17.20;99.90
23544;DHT22;11950;51.230;4.012;2023-08-08T08:12:42;17.20;99.90
23544;DHT22;11950;51.230;4.012;2023-08-08T08:15:08;17.30;99.90
23544;DHT22;11950;51.230;4.012;2023-08-08T08:17:35;17.30;99.90
23544;DHT22;11950;51.230;4.012;2023-08-08T08:20:02;17.30;99.90
23544;DHT22;11950;51.230;4.012;2023-08-08T08:22:32;17.30;99.90
23544;DHT22;11950;51.230;4.012;2023-08-08T08:24:58;17.30;99.90
23544;DHT22;11950;51.230;4.012;2023-08-08T08:27:24;17.30;99.90
23544;DHT22;11950;51.230;4.012;2023-08-08T08:29:51;17.30;99.90
23544;DHT22;11950;51.230;4.012;2023-08-08T08:32:17;17.40;99.90
23544;DHT22;11950;51.230;4.012;2023-08-08T08:34:43;17.40;99.90
23544;DHT22;11950;51.230;4.012;2023-08-08T08:37:10;17.40;99.90
23544;DHT22;11950;51.230;4.012;2023-08-08T08:39:36;17.40;99.90
23544;DHT22;11950;51.230;4.012;2023-08-08T08:42:03;17.40;99.90
23544;DHT22;11950;51.230;4.012;2023-08-08T08:44:34;17.40;99.90
23544;DHT22;11950;51.230;4.012;2023-08-08T08:47:07;17.40;99.90
23544;DHT22;11950;51.230;4.012;2023-08-08T08:49:38;17.50;99.90
23544;DHT22;11950;51.230;4.012;2023-08-08T08:52:05;17.60;99.90
23544;DHT22;11950;51.230;4.012;2023-08-08T08:54:32;17.70;99.90
23544;DHT22;11950;51.230;4.012;2023-08-08T08:56:59;17.80;99.90
23544;DHT22;11950;51.230;4.012;2023-08-08T08:59:25;17.90;99.90
23544;DHT22;11950;51.230;4.012;2023-08-08T09:01:52;17.90;99.90
23544;DHT22;11950;51.230;4.012;2023-08-08T09:04:20;18.00;99.90
23544;DHT22;11950;51.230;4.012;2023-08-08T09:06:48;18.20;99.90
23544;DHT22;11950;51.230;4.012;2023-08-08T09:09:15;18.30;99.90
23544;DHT22;11950;51.230;4.012;2023-08-08T09:11:47;18.40;99.90
23544;DHT22;11950;51.230;4.012;2023-08-08T09:14:18;18.50;99.90
23544;DHT22;11950;51.230;4.012;2023-08-08T09:16:45;18.60;99.90
23544;DHT22;11950;51.230;4.012;2023-08-08T09:19:13;18.70;99.90
23544;DHT22;11950;51.230;4.012;2023-08-08T09:21:39;18.80;99.90
23544;DHT22;11950;51.230;4.012;2023-08-08T09:24:05;18.90;99.90
23544;DHT22;11950;51.230;4.012;2023-08-08T09:26:33;19.00;99.90
23544;DHT22;11950;51.230;4.012;2023-08-08T09:29:02;19.10;99.90
23544;DHT22;11950;51.230;4.012;2023-08-08T09:31:29;19.10;99.90
23544;DHT22;11950;51.230;4.012;2023-08-08T09:33:58;19.10;99.90
23544;DHT22;11950;51.230;4.012;2023-08-08T09:36:24;19.10;99.90
23544;DHT22;11950;51.230;4.012;2023-08-08T09:38:52;19.20;99.90
23544;DHT22;11950;51.230;4.012;2023-08-08T09:41:20;19.20;99.90
23544;DHT22;11950;51.230;4.012;2023-08-08T09:43:51;19.30;99.90
23544;DHT22;11950;51.230;4.012;2023-08-08T09:46:21;19.30;99.90
23544;DHT22;11950;51.230;4.012;2023-08-08T09:48:48;19.30;99.90
23544;DHT22;11950;51.230;4.012;2023-08-08T09:51:15;19.30;99.90
23544;DHT22;11950;51.230;4.012;2023-08-08T09:53:42;19.30;99.90
23544;DHT22;11950;51.230;4.012;2023-08-08T09:56:08;19.20;99.90
23544;DHT22;11950;51.230;4.012;2023-08-08T09:58:35;19.10;99.90
23544;DHT22;11950;51.230;4.012;2023-08-08T10:01:01;19.20;99.90
23544;DHT22;11950;51.230;4.012;2023-08-08T10:03:28;19.10;99.90
23544;DHT22;11950;51.230;4.012;2023-08-08T10:05:54;19.20;99.90
23544;DHT22;11950;51.230;4.012;2023-08-08T10:08:20;19.20;99.90
23544;DHT22;11950;51.230;4.012;2023-08-08T10:10:48;19.30;99.90
23544;DHT22;11950;51.230;4.012;2023-08-08T10:13:26;19.30;99.90
23544;DHT22;11950;51.230;4.012;2023-08-08T10:15:53;19.40;99.90
23544;DHT22;11950;51.230;4.012;2023-08-08T10:18:24;19.50;99.90
23544;DHT22;11950;51.230;4.012;2023-08-08T10:20:51;19.50;99.90
23544;DHT22;11950;51.230;4.012;2023-08-08T10:23:19;19.40;99.90
23544;DHT22;11950;51.230;4.012;2023-08-08T10:25:51;19.50;99.90
23544;DHT22;11950;51.230;4.012;2023-08-08T10:28:20;19.60;99.90
23544;DHT22;11950;51.230;4.012;2023-08-08T10:30:57;19.70;99.90
23544;DHT22;11950;51.230;4.012;2023-08-08T10:33:25;19.80;99.90
23544;DHT22;11950;51.230;4.012;2023-08-08T10:36:04;19.80;99.90
23544;DHT22;11950;51.230;4.012;2023-08-08T10:38:46;19.70;99.90
23544;DHT22;11950;51.230;4.012;2023-08-08T10:41:15;19.70;99.90
23544;DHT22;11950;51.230;4.012;2023-08-08T10:43:53;19.70;99.90
23544;DHT22;11950;51.230;4.012;2023-08-08T10:46:32;19.70;99.90
23544;DHT22;11950;51.230;4.012;2023-08-08T10:49:01;19.80;99.90
23544;DHT22;11950;51.230;4.012;2023-08-08T10:51:37;20.00;99.90
23544;DHT22;11950;51.230;4.012;2023-08-08T10:54:24;20.00;99.90
23544;DHT22;11950;51.230;4.012;2023-08-08T10:56:56;20.10;99.90
23544;DHT22;11950;51.230;4.012;2023-08-08T10:59:37;20.10;99.90
23544;DHT22;11950;51.230;4.012;2023-08-08T11:02:04;20.10;99.90
23544;DHT22;11950;51.230;4.012;2023-08-08T11:04:30;20.10;99.90
23544;DHT22;11950;51.230;4.012;2023-08-08T11:06:58;20.00;99.90
23544;DHT22;11950;51.230;4.012;2023-08-08T11:09:25;20.00;99.90
23544;DHT22;11950;51.230;4.012;2023-08-08T11:11:52;19.90;99.90
23544;DHT22;11950;51.230;4.012;2023-08-08T11:14:20;19.80;99.90
23544;DHT22;11950;51.230;4.012;2023-08-08T11:16:48;19.80;99.90
23544;DHT22;11950;51.230;4.012;2023-08-08T11:19:15;19.80;99.90
23544;DHT22;11950;51.230;4.012;2023-08-08T11:21:44;19.90;99.90
23544;DHT22;11950;51.230;4.012;2023-08-08T11:24:11;20.00;99.90
23544;DHT22;11950;51.230;4.012;2023-08-08T11:26:40;20.10;99.90
23544;DHT22;11950;51.230;4.012;2023-08-08T11:29:07;20.20;99.90
23544;DHT22;11950;51.230;4.012;2023-08-08T11:31:36;20.30;99.90
23544;DHT22;11950;51.230;4.012;2023-08-08T11:34:04;20.50;99.90
23544;DHT22;11950;51.230;4.012;2023-08-08T11:36:35;20.60;99.90
23544;DHT22;11950;51.230;4.012;2023-08-08T11:39:05;20.90;99.90
23544;DHT22;11950;51.230;4.012;2023-08-08T11:41:34;21.00;99.90
23544;DHT22;11950;51.230;4.012;2023-08-08T11:44:05;21.10;99.90
23544;DHT22;11950;51.230;4.012;2023-08-08T11:46:31;21.10;99.90
23544;DHT22;11950;51.230;4.012;2023-08-08T11:49:05;21.10;99.90
23544;DHT22;11950;51.230;4.012;2023-08-08T11:51:33;21.00;99.90
23544;DHT22;11950;51.230;4.012;2023-08-08T11:54:01;21.00;99.90
23544;DHT22;11950;51.230;4.012;2023-08-08T11:56:28;21.00;99.90
23544;DHT22;11950;51.230;4.012;2023-08-08T11:58:55;21.00;99.90
23544;DHT22;11950;51.230;4.012;2023-08-08T12:01:25;21.10;99.90
23544;DHT22;11950;51.230;4.012;2023-08-08T12:03:52;21.10;99.90
23544;DHT22;11950;51.230;4.012;2023-08-08T12:06:20;21.10;99.90
23544;DHT22;11950;51.230;4.012;2023-08-08T12:08:47;21.10;99.90
23544;DHT22;11950;51.230;4.012;2023-08-08T12:11:15;21.10;99.90
23544;DHT22;11950;51.230;4.012;2023-08-08T12:13:43;21.10;99.90
23544;DHT22;11950;51.230;4.012;2023-08-08T12:16:10;21.00;99.90
23544;DHT22;11950;51.230;4.012;2023-08-08T12:18:37;21.10;99.90
23544;DHT22;11950;51.230;4.012;2023-08-08T12:21:05;21.10;99.90
23544;DHT22;11950;51.230;4.012;2023-08-08T12:23:32;21.10;99.90
23544;DHT22;11950;51.230;4.012;2023-08-08T12:25:58;21.20;99.90
23544;DHT22;11950;51.230;4.012;2023-08-08T12:28:25;21.20;99.90
23544;DHT22;11950;51.230;4.012;2023-08-08T12:30:52;21.20;99.90
23544;DHT22;11950;51.230;4.012;2023-08-08T12:33:18;21.30;99.90
23544;DHT22;11950;51.230;4.012;2023-08-08T12:35:46;21.30;99.90
23544;DHT22;11950;51.230;4.012;2023-08-08T12:38:13;21.30;99.90
23544;DHT22;11950;51.230;4.012;2023-08-08T12:40:40;21.40;99.90
23544;DHT22;11950;51.230;4.012;2023-08-08T12:43:06;21.40;99.90
23544;DHT22;11950;51.230;4.012;2023-08-08T12:45:32;21.40;99.90
23544;DHT22;11950;51.230;4.012;2023-08-08T12:47:59;21.40;99.90
23544;DHT22;11950;51.230;4.012;2023-08-08T12:50:25;21.40;99.90
23544;DHT22;11950;51.230;4.012;2023-08-08T12:52:51;21.40;99.90
23544;DHT22;11950;51.230;4.012;2023-08-08T12:55:17;21.50;99.90
23544;DHT22;11950;51.230;4.012;2023-08-08T12:57:44;21.50;99.90
23544;DHT22;11950;51.230;4.012;2023-08-08T13:00:11;21.40;99.90
23544;DHT22;11950;51.230;4.012;2023-08-08T13:02:40;21.30;99.90
23544;DHT22;11950;51.230;4.012;2023-08-08T13:05:06;21.20;99.90
23544;DHT22;11950;51.230;4.012;2023-08-08T13:07:33;21.20;99.90
23544;DHT22;11950;51.230;4.012;2023-08-08T13:09:59;21.10;99.90
23544;DHT22;11950;51.230;4.012;2023-08-08T13:12:26;21.10;99.90
23544;DHT22;11950;51.230;4.012;2023-08-08T13:14:52;21.10;99.90
23544;DHT22;11950;51.230;4.012;2023-08-08T13:17:18;21.10;99.90
23544;DHT22;11950;51.230;4.012;2023-08-08T13:19:45;21.10;99.90
23544;DHT22;11950;51.230;4.012;2023-08-08T13:22:11;21.10;99.90
23544;DHT22;11950;51.230;4.012;2023-08-08T13:24:39;21.10;99.90
23544;DHT22;11950;51.230;4.012;2023-08-08T13:27:05;21.20;99.90
23544;DHT22;11950;51.230;4.012;2023-08-08T13:29:31;21.20;99.90
23544;DHT22;11950;51.230;4.012;2023-08-08T13:31:58;21.20;99.90
23544;DHT22;11950;51.230;4.012;2023-08-08T13:34:24;21.20;99.90
23544;DHT22;11950;51.230;4.012;2023-08-08T13:36:50;21.30;99.90
23544;DHT22;11950;51.230;4.012;2023-08-08T13:39:17;21.30;99.90
23544;DHT22;11950;51.230;4.012;2023-08-08T13:41:43;21.30;99.90
23544;DHT22;11950;51.230;4.012;2023-08-08T13:44:09;21.30;99.90
23544;DHT22;11950;51.230;4.012;2023-08-08T13:46:35;21.30;99.90
23544;DHT22;11950;51.230;4.012;2023-08-08T13:49:01;21.30;99.90
23544;DHT22;11950;51.230;4.012;2023-08-08T13:51:28;21.30;99.90
23544;DHT22;11950;51.230;4.012;2023-08-08T13:53:54;21.30;99.90
23544;DHT22;11950;51.230;4.012;2023-08-08T13:56:20;21.30;99.90
23544;DHT22;11950;51.230;4.012;2023-08-08T13:58:46;21.30;99.90
23544;DHT22;11950;51.230;4.012;2023-08-08T14:01:13;21.30;99.90
23544;DHT22;11950;51.230;4.012;2023-08-08T14:03:40;21.30;99.90
23544;DHT22;11950;51.230;4.012;2023-08-08T14:06:06;21.10;99.90
23544;DHT22;11950;51.230;4.012;2023-08-08T14:08:32;21.10;99.90
23544;DHT22;11950;51.230;4.012;2023-08-08T14:10:58;21.00;99.90
23544;DHT22;11950;51.230;4.012;2023-08-08T14:13:25;21.00;99.90
23544;DHT22;11950;51.230;4.012;2023-08-08T14:15:51;20.90;99.90
23544;DHT22;11950;51.230;4.012;2023-08-08T14:18:18;20.80;99.90
23544;DHT22;11950;51.230;4.012;2023-08-08T14:20:44;20.80;99.90
23544;DHT22;11950;51.230;4.012;2023-08-08T14:23:11;20.80;99.90
23544;DHT22;11950;51.230;4.012;2023-08-08T14:25:37;20.70;99.90
23544;DHT22;11950;51.230;4.012;2023-08-08T14:28:03;20.70;99.90
23544;DHT22;11950;51.230;4.012;2023-08-08T14:30:30;20.70;99.90
23544;DHT22;11950;51.230;4.012;2023-08-08T14:32:59;20.60;99.90
23544;DHT22;11950;51.230;4.012;2023-08-08T14:35:26;20.60;99.90
23544;DHT22;11950;51.230;4.012;2023-08-08T14:37:52;20.60;99.90
23544;DHT22;11950;51.230;4.012;2023-08-08T14:40:18;20.60;99.90
23544;DHT22;11950;51.230;4.012;2023-08-08T14:42:44;20.60;99.90
23544;DHT22;11950;51.230;4.012;2023-08-08T14:45:11;20.60;99.90
23544;DHT22;11950;51.230;4.012;2023-08-08T14:47:37;20.60;99.90
23544;DHT22;11950;51.230;4.012;2023-08-08T14:50:05;20.60;99.90
23544;DHT22;11950;51.230;4.012;2023-08-08T14:52:31;20.60;99.90
23544;DHT22;11950;51.230;4.012;2023-08-08T14:54:58;20.60;99.90
23544;DHT22;11950;51.230;4.012;2023-08-08T14:57:24;20.50;99.90
23544;DHT22;11950;51.230;4.012;2023-08-08T14:59:51;20.50;99.90
23544;DHT22;11950;51.230;4.012;2023-08-08T15:02:17;20.40;99.90
23544;DHT22;11950;51.230;4.012;2023-08-08T15:04:44;20.30;99.90
23544;DHT22;11950;51.230;4.012;2023-08-08T15:07:10;20.20;99.90
23544;DHT22;11950;51.230;4.012;2023-08-08T15:09:36;20.10;99.90
23544;DHT22;11950;51.230;4.012;2023-08-08T15:12:04;20.00;99.90
23544;DHT22;11950;51.230;4.012;2023-08-08T15:14:31;19.80;99.90
23544;DHT22;11950;51.230;4.012;2023-08-08T15:16:57;19.70;99.90
23544;DHT22;11950;51.230;4.012;2023-08-08T15:19:23;19.70;99.90
23544;DHT22;11950;51.230;4.012;2023-08-08T15:21:49;19.60;99.90
23544;DHT22;11950;51.230;4.012;2023-08-08T15:24:16;19.60;99.90
23544;DHT22;11950;51.230;4.012;2023-08-08T15:26:42;19.50;99.90
23544;DHT22;11950;51.230;4.012;2023-08-08T15:29:08;19.50;99.90
23544;DHT22;11950;51.230;4.012;2023-08-08T15:31:35;19.40;99.90